createdAt,value
2023-03-13T00:04:07.785Z,7.88
2023-03-13T00:09:11.281Z,7.92
2023-03-13T00:14:12.249Z,7.94
2023-03-13T00:19:15.164Z,7.94
2023-03-13T00:24:15.971Z,7.95
2023-03-13T00:29:16.867Z,8.02
2023-03-13T00:34:17.790Z,8.05
2023-03-13T00:39:18.551Z,8.07
2023-03-13T00:44:19.334Z,7.99
2023-03-13T00:49:22.197Z,7.99
2023-03-13T00:54:22.968Z,8.02
2023-03-13T00:59:23.823Z,8.06
2023-03-13T01:04:24.917Z,8.04
2023-03-13T01:09:25.755Z,8.01
2023-03-13T01:14:26.744Z,7.97
2023-03-13T01:19:27.841Z,8.03
2023-03-13T01:24:28.606Z,7.97
2023-03-13T01:29:29.534Z,7.94
2023-03-13T01:34:30.396Z,7.91
2023-03-13T01:39:31.706Z,7.94
2023-03-13T01:44:50.859Z,7.98
2023-03-13T01:49:52.747Z,7.96
2023-03-13T01:55:16.078Z,7.86
2023-03-13T02:00:24.291Z,7.85
2023-03-13T02:05:27.762Z,7.83
2023-03-13T02:10:33.128Z,7.74
2023-03-13T02:15:34.052Z,7.79
2023-03-13T02:20:38.350Z,7.80
2023-03-13T02:25:46.905Z,7.81
2023-03-13T02:30:53.900Z,7.86
2023-03-13T02:35:55.266Z,7.88
2023-03-13T02:40:59.249Z,7.91
2023-03-13T02:46:15.678Z,7.95
2023-03-13T02:52:21.179Z,7.91
2023-03-13T02:57:22.099Z,7.92
2023-03-13T03:02:23.050Z,7.87
2023-03-13T03:07:23.923Z,7.87
2023-03-13T03:12:26.005Z,7.91
2023-03-13T03:17:26.896Z,7.86
2023-03-13T03:22:27.879Z,7.92
2023-03-13T03:27:28.720Z,7.96
2023-03-13T03:32:30.446Z,8.00
2023-03-13T03:37:32.616Z,8.14
2023-03-13T03:42:34.272Z,8.20
2023-03-13T03:47:35.821Z,8.31
2023-03-13T03:52:37.864Z,8.38
2023-03-13T03:57:39.027Z,8.43
2023-03-13T04:02:42.429Z,8.46
2023-03-13T04:07:43.716Z,8.51
2023-03-13T04:12:44.918Z,8.58
2023-03-13T04:17:45.741Z,8.63
2023-03-13T04:22:47.309Z,8.68
2023-03-13T04:27:48.948Z,8.74
2023-03-13T04:32:51.335Z,8.82
2023-03-13T04:38:14.560Z,8.90
2023-03-13T04:43:33.788Z,8.87
2023-03-13T04:48:43.466Z,8.88
2023-03-13T04:54:02.785Z,8.98
2023-03-13T05:00:40.313Z,9.00
2023-03-13T05:05:53.145Z,9.09
2023-03-13T05:11:15.429Z,9.10
2023-03-13T05:16:38.551Z,9.12
2023-03-13T05:24:16.546Z,9.15
2023-03-13T05:29:35.601Z,9.31
2023-03-13T05:35:09.593Z,9.41
2023-03-13T05:40:20.091Z,9.46
2023-03-13T05:46:54.557Z,9.47
2023-03-13T05:53:47.239Z,9.47
2023-03-13T05:59:44.718Z,9.56
2023-03-13T06:05:14.448Z,9.57
2023-03-13T06:10:17.522Z,9.61
2023-03-13T06:15:18.785Z,9.65
2023-03-13T06:22:11.382Z,9.70
2023-03-13T06:27:12.167Z,9.71
2023-03-13T06:32:13.134Z,9.77
2023-03-13T06:37:14.128Z,9.83
2023-03-13T06:42:15.060Z,9.82
2023-03-13T06:47:15.946Z,9.88
2023-03-13T06:52:18.395Z,9.96
2023-03-13T06:57:20.700Z,10.04
2023-03-13T07:02:22.427Z,10.16
2023-03-13T07:07:31.856Z,10.21
2023-03-13T07:12:36.969Z,10.36
2023-03-13T07:17:37.884Z,10.48
2023-03-13T07:22:38.807Z,10.50
2023-03-13T07:27:39.684Z,10.51
2023-03-13T07:32:40.995Z,10.56
2023-03-13T07:37:41.992Z,10.53
2023-03-13T07:42:43.329Z,10.50
2023-03-13T07:47:44.096Z,10.49
2023-03-13T07:52:44.980Z,10.53
2023-03-13T07:57:45.779Z,10.62
2023-03-13T08:02:46.582Z,10.67
2023-03-13T08:07:47.345Z,10.69
2023-03-13T08:12:48.240Z,10.73
2023-03-13T08:17:49.019Z,10.71
2023-03-13T08:22:49.845Z,10.71
2023-03-13T08:27:50.630Z,10.71
2023-03-13T08:32:51.460Z,10.84
2023-03-13T08:37:52.265Z,10.93
2023-03-13T08:42:54.093Z,10.98
2023-03-13T08:47:55.093Z,11.04
2023-03-13T08:52:55.887Z,11.15
2023-03-13T08:57:56.699Z,11.22
2023-03-13T09:02:57.891Z,11.33
2023-03-13T09:07:58.721Z,11.37
2023-03-13T09:12:59.732Z,11.52
2023-03-13T09:18:01.197Z,11.52
2023-03-13T09:23:02.202Z,11.48
2023-03-13T09:28:03.289Z,11.53
2023-03-13T09:33:04.160Z,11.50
2023-03-13T09:38:05.629Z,11.47
2023-03-13T09:43:20.418Z,11.40
2023-03-13T09:49:02.270Z,11.36
2023-03-13T09:54:14.685Z,11.28
2023-03-13T09:59:45.453Z,11.27
2023-03-13T10:05:34.437Z,11.29
2023-03-13T10:15:07.527Z,11.32
2023-03-13T10:20:31.921Z,11.20
2023-03-13T10:25:36.000Z,11.24
2023-03-13T10:30:42.851Z,11.23
2023-03-13T10:35:44.535Z,11.17
2023-03-13T10:41:08.917Z,11.01
2023-03-13T10:46:09.778Z,10.87
2023-03-13T10:51:22.033Z,10.93
2023-03-13T10:56:30.013Z,10.90
2023-03-13T11:01:41.441Z,10.93
2023-03-13T11:06:42.204Z,10.95
2023-03-13T11:12:03.185Z,11.01
2023-03-13T11:18:01.047Z,11.05
2023-03-13T11:26:16.094Z,11.12
2023-03-13T11:31:35.118Z,11.02
2023-03-13T11:36:45.339Z,11.02
2023-03-13T11:44:55.129Z,10.95
2023-03-13T11:56:58.757Z,11.00
2023-03-13T12:02:11.459Z,11.11
2023-03-13T12:08:13.252Z,11.38
2023-03-13T12:13:29.521Z,11.40
2023-03-13T12:18:40.005Z,11.56
2023-03-13T12:25:14.212Z,11.93
2023-03-13T12:30:30.605Z,12.80
2023-03-13T12:35:34.655Z,13.14
2023-03-13T12:41:23.888Z,13.75
2023-03-13T12:46:42.088Z,13.72
2023-03-13T12:53:32.646Z,13.81
2023-03-13T12:58:51.382Z,13.89
2023-03-13T13:03:57.862Z,14.25
2023-03-13T13:09:15.766Z,14.68
2023-03-13T13:15:11.842Z,14.97
2023-03-13T13:20:53.583Z,15.11
2023-03-13T13:25:56.112Z,15.64
2023-03-13T13:30:57.145Z,15.92
2023-03-13T13:36:35.079Z,15.62
2023-03-13T13:41:37.101Z,15.83
2023-03-13T13:46:44.389Z,16.07
2023-03-13T13:58:38.685Z,16.25
2023-03-13T14:03:42.558Z,15.14
2023-03-13T14:08:47.567Z,14.89
2023-03-13T14:14:40.168Z,14.72
2023-03-13T14:19:42.506Z,14.52
2023-03-13T14:24:56.804Z,13.38
2023-03-13T14:30:08.478Z,12.03
2023-03-13T14:35:12.931Z,11.51
2023-03-13T14:40:23.721Z,11.43
2023-03-13T14:45:38.988Z,11.33
2023-03-13T14:50:39.944Z,11.26
2023-03-13T14:55:41.287Z,11.32
2023-03-13T15:00:44.053Z,11.44
2023-03-13T15:06:02.470Z,11.57
2023-03-13T15:11:31.416Z,11.74
2023-03-13T15:16:32.454Z,11.60
2023-03-13T15:21:34.300Z,11.56
2023-03-13T15:26:35.090Z,11.52
2023-03-13T15:31:36.939Z,11.42
2023-03-13T15:36:39.982Z,11.35
2023-03-13T15:41:40.737Z,11.30
2023-03-13T15:46:41.672Z,11.43
2023-03-13T15:51:42.421Z,11.96
2023-03-13T15:56:43.419Z,12.12
2023-03-13T16:01:47.745Z,11.93
2023-03-13T16:06:48.525Z,11.95
2023-03-13T16:11:49.337Z,11.98
2023-03-13T16:16:51.923Z,11.93
2023-03-13T16:21:53.046Z,11.96
2023-03-13T16:26:54.371Z,12.00
2023-03-13T16:31:55.179Z,12.05
2023-03-13T16:36:56.010Z,11.98
2023-03-13T16:41:56.781Z,11.94
2023-03-13T16:47:05.623Z,11.84
2023-03-13T16:52:13.571Z,11.78
2023-03-13T16:57:17.528Z,11.64
2023-03-13T17:02:19.543Z,11.58
2023-03-13T17:07:23.427Z,11.60
2023-03-13T17:12:24.316Z,11.57
2023-03-13T17:17:33.945Z,11.54
2023-03-13T17:22:35.046Z,11.35
2023-03-13T17:27:36.614Z,11.33
2023-03-13T17:32:37.451Z,11.19
2023-03-13T17:37:38.485Z,11.12
2023-03-13T17:42:39.262Z,10.98
2023-03-13T17:47:40.929Z,11.11
2023-03-13T17:52:42.241Z,11.05
2023-03-13T17:57:43.075Z,11.08
2023-03-13T18:02:46.231Z,11.07
2023-03-13T18:07:48.033Z,11.11
2023-03-13T18:12:50.730Z,11.18
2023-03-13T18:17:52.166Z,11.02
2023-03-13T18:22:58.535Z,10.91
2023-03-13T18:27:59.443Z,10.70
2023-03-13T18:33:01.046Z,10.56
2023-03-13T18:38:01.830Z,10.34
2023-03-13T18:43:03.005Z,10.21
2023-03-13T18:48:08.778Z,10.06
2023-03-13T18:53:09.544Z,9.95
2023-03-13T18:58:10.545Z,9.93
2023-03-13T19:03:11.443Z,9.90
2023-03-13T19:08:12.250Z,9.80
2023-03-13T19:13:13.050Z,9.80
2023-03-13T19:18:14.011Z,9.73
2023-03-13T19:23:14.817Z,9.69
2023-03-13T19:28:16.279Z,9.74
2023-03-13T19:33:17.055Z,9.62
2023-03-13T19:38:17.912Z,9.66
2023-03-13T19:43:18.790Z,9.62
2023-03-13T19:48:19.828Z,9.52
2023-03-13T19:53:22.726Z,9.43
2023-03-13T19:58:23.976Z,9.41
2023-03-13T20:03:24.765Z,9.30
2023-03-13T20:08:25.587Z,9.22
2023-03-13T20:13:26.388Z,9.32
2023-03-13T20:18:27.287Z,9.14
2023-03-13T20:23:28.167Z,9.13
2023-03-13T20:28:28.964Z,8.95
2023-03-13T20:33:30.134Z,8.88
2023-03-13T20:38:32.015Z,8.65
2023-03-13T20:43:34.522Z,8.63
2023-03-13T20:48:38.360Z,8.62
2023-03-13T20:53:40.465Z,8.56
2023-03-13T20:58:41.241Z,8.56
2023-03-13T21:03:41.996Z,8.64
2023-03-13T21:08:43.753Z,8.59
2023-03-13T21:13:45.454Z,8.56
2023-03-13T21:18:46.905Z,8.51
2023-03-13T21:23:51.114Z,8.51
2023-03-13T21:28:52.234Z,8.56
2023-03-13T21:33:53.082Z,8.61
2023-03-13T21:38:53.864Z,8.60
2023-03-13T21:43:55.078Z,8.46
2023-03-13T21:48:55.919Z,8.51
2023-03-13T21:53:56.805Z,8.52
2023-03-13T21:58:57.563Z,8.43
2023-03-13T22:03:58.363Z,8.29
2023-03-13T22:08:59.165Z,8.23
2023-03-13T22:13:59.963Z,8.24
2023-03-13T22:19:01.440Z,8.25
2023-03-13T22:24:02.432Z,8.21
2023-03-13T22:29:03.757Z,8.28
2023-03-13T22:34:04.594Z,8.31
2023-03-13T22:39:05.367Z,8.38
2023-03-13T22:44:06.142Z,8.39
2023-03-13T22:49:07.019Z,8.38
2023-03-13T22:54:08.449Z,8.41
2023-03-13T22:59:09.229Z,8.36
2023-03-13T23:04:10.029Z,8.36
2023-03-13T23:09:10.848Z,8.38
2023-03-13T23:14:11.616Z,8.42
2023-03-13T23:19:12.812Z,8.38
2023-03-13T23:24:13.726Z,8.37
2023-03-13T23:29:15.696Z,8.33
2023-03-13T23:34:21.052Z,8.31
2023-03-13T23:39:21.866Z,8.34
2023-03-13T23:44:22.754Z,8.30
2023-03-13T23:49:23.683Z,8.27
2023-03-13T23:54:24.485Z,8.27
2023-03-13T23:59:25.692Z,8.32
